Time;durP1;ratioP1;P1;durP2;ratioP2;P2;SDS_P1;SDS_P2;PMS_P1;PMS_P2;Temp;Humidity;BMP_temperature;BMP_pressure;BME280_temperature;BME280_humidity;BME280_pressure;Samples;Min_cycle;Max_cycle;Signal;HPM_P1;HPM_P2
2022/03/28 00:00:14;;;;;;;16.85;10.20;;;12.60;98.50;;;;;;4140084;28;20026;-65
2022/03/28 00:02:15;;;;;;;13.53;9.47;;;12.60;98.90;;;;;;4142946;28;20523;-64
2022/03/28 00:04:15;;;;;;;14.60;9.35;;;12.60;99.30;;;;;;4143342;28;20132;-64
2022/03/28 00:06:16;;;;;;;17.67;9.77;;;12.60;99.40;;;;;;4141860;28;20046;-64
2022/03/28 00:08:16;;;;;;;21.05;10.60;;;12.60;99.80;;;;;;4143614;28;20042;-64
2022/03/28 00:10:17;;;;;;;15.93;10.27;;;12.50;99.60;;;;;;4140696;28;20038;-64
2022/03/28 00:12:18;;;;;;;15.00;10.10;;;12.50;99.90;;;;;;4142329;28;20044;-64
2022/03/28 00:14:19;;;;;;;16.15;10.20;;;12.50;99.90;;;;;;4142378;28;20129;-64
2022/03/28 00:16:19;;;;;;;18.67;10.27;;;12.50;99.80;;;;;;4143735;28;20080;-64
2022/03/28 00:18:20;;;;;;;14.25;9.65;;;12.50;99.90;;;;;;4146089;28;20034;-64
2022/03/28 00:20:21;;;;;;;17.85;10.30;;;12.50;99.90;;;;;;4144127;28;20458;-64
2022/03/28 00:22:21;;;;;;;16.38;10.43;;;12.50;99.90;;;;;;4145417;28;20040;-65
2022/03/28 00:24:22;;;;;;;15.95;9.20;;;12.40;99.90;;;;;;4145197;28;20042;-64
2022/03/28 00:26:22;;;;;;;15.85;10.07;;;12.40;99.90;;;;;;4145146;28;20454;-64
2022/03/28 00:28:23;;;;;;;14.45;9.85;;;12.40;99.70;;;;;;4153285;28;20046;-65
2022/03/28 00:30:25;;;;;;;17.25;9.60;;;12.40;99.80;;;;;;4151033;28;20042;-64
2022/03/28 00:32:25;;;;;;;17.27;10.73;;;12.40;99.60;;;;;;4154823;28;20076;-64
2022/03/28 00:34:26;;;;;;;16.55;10.75;;;12.30;99.90;;;;;;4149034;28;20038;-64
2022/03/28 00:36:27;;;;;;;18.70;10.43;;;12.30;99.90;;;;;;4153144;28;20037;-63
2022/03/28 00:38:28;;;;;;;15.88;9.95;;;12.30;99.90;;;;;;4151473;28;20042;-63
2022/03/28 00:40:31;;;;;;;18.77;11.02;;;12.30;99.90;;;;;;4152418;28;20113;-64
2022/03/28 00:42:32;;;;;;;18.35;10.30;;;12.20;99.90;;;;;;4148438;28;20044;-63
2022/03/28 00:44:34;;;;;;;19.52;10.68;;;12.10;99.90;;;;;;4155145;28;20140;-63
2022/03/28 00:46:35;;;;;;;17.52;10.90;;;12.10;99.90;;;;;;4151189;28;20133;-64
2022/03/28 00:48:38;;;;;;;18.92;11.05;;;12.10;99.90;;;;;;4150655;28;20038;-63
2022/03/28 00:50:40;;;;;;;16.17;9.85;;;12.10;99.90;;;;;;4152776;28;20040;-65
2022/03/28 00:52:41;;;;;;;17.50;11.07;;;12.10;99.90;;;;;;4147973;28;20034;-63
2022/03/28 00:54:42;;;;;;;16.02;10.38;;;12.10;99.90;;;;;;4149889;28;20053;-64
2022/03/28 00:56:45;;;;;;;15.60;10.15;;;12.10;99.90;;;;;;4150581;28;20083;-63
2022/03/28 00:58:46;;;;;;;;;;;12.10;99.90;;;;;;4149896;28;20441;-64
2022/03/28 01:00:46;;;;;;;15.60;10.18;;;12.00;99.90;;;;;;4149637;28;19909;-64
2022/03/28 01:02:47;;;;;;;17.30;10.40;;;12.00;99.90;;;;;;4154092;28;20053;-63
2022/03/28 01:04:48;;;;;;;18.17;10.65;;;12.00;99.90;;;;;;4149723;28;20044;-64
2022/03/28 01:06:49;;;;;;;19.02;11.27;;;11.90;99.90;;;;;;4153326;28;20042;-63
2022/03/28 01:08:50;;;;;;;17.35;10.93;;;11.90;99.90;;;;;;4149531;28;20025;-63
2022/03/28 01:10:54;;;;;;;19.10;10.95;;;11.90;99.90;;;;;;4147032;28;20465;-64
2022/03/28 01:12:55;;;;;;;17.67;10.45;;;11.90;99.90;;;;;;4149216;28;20034;-64
2022/03/28 01:14:56;;;;;;;17.95;11.30;;;11.90;99.90;;;;;;4150707;28;20038;-63
2022/03/28 01:19:16;;;;;;;17.02;10.55;;;11.80;99.90;;;;;;4149260;28;20049;-63
2022/03/28 01:21:17;;;;;;;18.25;11.40;;;11.80;99.90;;;;;;4147326;28;20069;-63
2022/03/28 01:23:18;;;;;;;17.95;11.00;;;11.70;99.90;;;;;;4132330;28;20042;-63
2022/03/28 01:25:27;;;;;;;21.13;11.95;;;11.80;99.90;;;;;;4147833;28;20497;-63
2022/03/28 01:27:28;;;;;;;15.38;9.93;;;11.70;99.90;;;;;;4148236;28;20030;-63
2022/03/28 01:29:28;;;;;;;16.55;10.45;;;11.70;99.90;;;;;;4148406;28;20033;-63
2022/03/28 01:31:29;;;;;;;18.13;11.20;;;11.70;99.90;;;;;;4153208;28;20036;-64
2022/03/28 01:33:29;;;;;;;18.65;11.05;;;11.70;99.90;;;;;;4154516;28;20052;-63
2022/03/28 01:35:35;;;;;;;19.92;12.38;;;11.60;99.90;;;;;;4150314;28;20486;-63
2022/03/28 01:37:36;;;;;;;21.15;11.95;;;11.60;99.90;;;;;;4153497;28;20033;-63
2022/03/28 01:39:36;;;;;;;19.02;11.55;;;11.60;99.90;;;;;;4150925;28;20042;-63
2022/03/28 01:41:37;;;;;;;18.13;11.38;;;11.60;99.90;;;;;;4151593;28;20427;-63
2022/03/28 01:43:38;;;;;;;18.48;11.32;;;11.60;99.90;;;;;;4152973;28;20049;-63
2022/03/28 01:45:38;;;;;;;18.25;11.18;;;11.50;99.90;;;;;;4143653;28;20034;-63
2022/03/28 01:47:40;;;;;;;18.33;11.50;;;11.50;99.90;;;;;;4143934;28;20050;-63
2022/03/28 01:49:41;;;;;;;19.00;11.68;;;11.50;99.90;;;;;;4144072;28;20033;-63
2022/03/28 01:51:41;;;;;;;17.92;11.38;;;11.50;99.90;;;;;;4143453;28;20064;-63
2022/03/28 01:53:42;;;;;;;16.85;10.60;;;11.50;99.90;;;;;;4143572;28;20038;-63
2022/03/28 01:55:42;;;;;;;17.92;11.32;;;11.40;99.90;;;;;;4143314;28;20112;-63
2022/03/28 01:57:44;;;;;;;19.08;10.98;;;11.40;99.90;;;;;;4142987;28;20046;-63
2022/03/28 01:59:44;;;;;;;21.67;11.93;;;11.40;99.90;;;;;;4144201;28;20062;-63
2022/03/28 02:01:45;;;;;;;17.30;11.18;;;11.40;99.90;;;;;;4144550;28;20398;-64
2022/03/28 02:03:46;;;;;;;21.67;11.45;;;11.40;99.90;;;;;;4142164;28;20041;-64
2022/03/28 02:05:46;;;;;;;20.75;11.95;;;11.30;99.90;;;;;;4146306;28;20030;-64
2022/03/28 02:07:48;;;;;;;19.55;11.68;;;11.30;99.90;;;;;;4143076;28;20171;-64
2022/03/28 02:09:49;;;;;;;20.50;12.25;;;11.30;99.90;;;;;;4143681;28;20053;-64
2022/03/28 02:11:49;;;;;;;19.48;11.88;;;11.30;99.90;;;;;;4143362;28;20466;-64
2022/03/28 02:13:50;;;;;;;18.42;12.02;;;11.30;99.90;;;;;;4146881;28;20381;-63
2022/03/28 02:15:51;;;;;;;16.95;11.38;;;11.30;99.90;;;;;;4141922;28;20068;-63
2022/03/28 02:17:51;;;;;;;19.05;12.00;;;11.30;99.90;;;;;;4144705;28;20128;-63
2022/03/28 02:19:52;;;;;;;16.80;10.88;;;11.20;99.90;;;;;;4143717;28;20049;-63
2022/03/28 02:21:53;;;;;;;19.63;12.10;;;11.30;99.90;;;;;;4142109;28;20069;-63
2022/03/28 02:23:53;;;;;;;22.48;12.38;;;11.20;99.90;;;;;;4146938;28;20096;-64
2022/03/28 02:25:54;;;;;;;18.10;11.32;;;11.30;99.90;;;;;;4142644;28;20429;-64
2022/03/28 02:27:54;;;;;;;22.33;12.95;;;11.30;99.90;;;;;;4145828;28;20056;-64
2022/03/28 02:29:55;;;;;;;20.52;11.80;;;11.30;99.90;;;;;;4146003;28;20034;-64
2022/03/28 02:31:56;;;;;;;20.55;12.38;;;11.20;99.90;;;;;;4141862;28;20052;-63
2022/03/28 02:33:56;;;;;;;21.05;12.52;;;11.20;99.90;;;;;;4144296;28;20468;-64
2022/03/28 02:35:57;;;;;;;19.02;11.48;;;11.20;99.90;;;;;;4141971;28;20030;-63
2022/03/28 02:38:01;;;;;;;20.30;11.60;;;11.20;99.90;;;;;;4145155;28;20120;-64
2022/03/28 02:40:03;;;;;;;19.83;11.77;;;11.20;99.90;;;;;;4143261;28;20042;-64
2022/03/28 02:42:04;;;;;;;18.95;12.00;;;11.10;99.90;;;;;;4143682;28;20041;-63
2022/03/28 02:44:05;;;;;;;21.85;12.15;;;11.10;99.90;;;;;;4143941;28;20422;-64
2022/03/28 02:46:07;;;;;;;18.13;11.88;;;11.10;99.90;;;;;;4142092;28;20038;-64
2022/03/28 02:48:08;;;;;;;22.90;12.73;;;11.10;99.90;;;;;;4143827;28;20045;-63
2022/03/28 02:50:09;;;;;;;20.08;10.88;;;11.10;99.90;;;;;;4144655;28;20050;-64
2022/03/28 02:52:09;;;;;;;20.30;12.07;;;11.00;99.90;;;;;;4144909;28;20394;-63
2022/03/28 02:54:10;;;;;;;19.65;11.80;;;11.00;99.90;;;;;;4141584;28;20072;-63
2022/03/28 02:56:10;;;;;;;19.42;12.10;;;11.00;99.90;;;;;;4144310;28;20041;-63
2022/03/28 02:58:11;;;;;;;24.38;12.82;;;11.00;99.90;;;;;;4144393;28;20069;-63
2022/03/28 03:00:12;;;;;;;19.83;12.00;;;11.00;99.90;;;;;;4141192;28;20116;-64
2022/03/28 03:02:13;;;;;;;22.60;12.48;;;11.00;99.90;;;;;;4141749;28;20037;-63
2022/03/28 03:04:13;;;;;;;19.63;11.45;;;11.00;99.90;;;;;;4143557;28;20057;-63
2022/03/28 03:06:14;;;;;;;19.90;11.88;;;11.00;99.90;;;;;;4144309;28;20107;-63
2022/03/28 03:08:15;;;;;;;19.70;11.90;;;10.90;99.90;;;;;;4143006;28;20026;-63
2022/03/28 03:10:15;;;;;;;22.45;13.68;;;10.90;99.90;;;;;;4140840;28;20142;-64
2022/03/28 03:12:16;;;;;;;21.27;12.80;;;10.90;99.90;;;;;;4143675;28;20038;-63
2022/03/28 03:14:16;;;;;;;21.13;12.23;;;10.90;99.90;;;;;;4144399;28;20046;-64
2022/03/28 03:16:17;;;;;;;19.85;12.20;;;10.90;99.90;;;;;;4143827;28;20037;-63
2022/03/28 03:18:18;;;;;;;22.42;12.88;;;10.90;99.90;;;;;;4142454;28;20038;-64
2022/03/28 03:20:18;;;;;;;20.15;12.77;;;10.90;99.90;;;;;;4143951;28;20037;-64
2022/03/28 03:22:19;;;;;;;23.05;12.65;;;10.90;99.90;;;;;;4144013;28;20049;-63
2022/03/28 03:24:20;;;;;;;20.67;11.57;;;10.80;99.90;;;;;;4141468;28;20675;-63
2022/03/28 03:26:20;;;;;;;20.70;12.70;;;10.90;99.90;;;;;;4142222;28;20046;-63
2022/03/28 03:28:22;;;;;;;23.63;13.15;;;10.90;99.90;;;;;;4142823;28;20030;-64
2022/03/28 03:30:22;;;;;;;23.05;12.63;;;10.90;99.90;;;;;;4141936;28;20081;-64
2022/03/28 03:32:23;;;;;;;23.33;13.68;;;10.90;99.90;;;;;;4144642;28;20038;-63
2022/03/28 03:34:24;;;;;;;19.48;12.57;;;10.80;99.90;;;;;;4144826;28;20107;-64
2022/03/28 03:36:24;;;;;;;20.00;11.70;;;10.90;99.90;;;;;;4142464;28;20045;-64
2022/03/28 03:38:25;;;;;;;22.13;12.82;;;10.80;99.90;;;;;;4144127;28;20061;-63
2022/03/28 03:40:25;;;;;;;21.25;13.27;;;10.80;99.90;;;;;;4143260;28;20038;-63
2022/03/28 03:42:26;;;;;;;21.88;12.77;;;10.80;99.90;;;;;;4148616;28;20046;-63
2022/03/28 03:44:27;;;;;;;21.02;13.00;;;10.80;99.90;;;;;;4146591;28;20034;-64
2022/03/28 03:46:27;;;;;;;20.25;12.90;;;10.80;99.90;;;;;;4148358;28;20038;-63
2022/03/28 03:48:29;;;;;;;23.02;13.48;;;10.80;99.90;;;;;;4150461;28;20038;-64
2022/03/28 03:50:30;;;;;;;22.73;13.90;;;10.80;99.90;;;;;;4150811;28;20048;-63
2022/03/28 03:52:31;;;;;;;22.13;13.27;;;10.80;99.90;;;;;;4151880;28;20812;-64
2022/03/28 03:54:32;;;;;;;23.27;14.35;;;10.80;99.90;;;;;;4152595;28;20401;-64
2022/03/28 03:56:33;;;;;;;18.63;12.20;;;10.80;99.90;;;;;;4149704;28;20064;-64
2022/03/28 03:58:33;;;;;;;23.58;13.40;;;10.70;99.90;;;;;;4155751;28;20073;-64
2022/03/28 04:00:34;;;;;;;23.05;12.45;;;10.70;99.90;;;;;;4151833;28;20041;-64
2022/03/28 04:02:35;;;;;;;20.88;12.38;;;10.70;99.90;;;;;;4149004;28;20220;-64
2022/03/28 04:04:35;;;;;;;20.27;11.55;;;10.70;99.90;;;;;;4151114;28;20057;-64
2022/03/28 04:06:36;;;;;;;21.00;11.95;;;10.60;99.90;;;;;;4149392;28;20152;-64
2022/03/28 04:08:37;;;;;;;20.10;11.98;;;10.60;99.90;;;;;;4151857;28;20053;-64
2022/03/28 04:10:38;;;;;;;19.80;11.88;;;10.60;99.90;;;;;;4151246;28;20541;-64
2022/03/28 04:12:39;;;;;;;19.48;11.13;;;10.60;99.90;;;;;;4153547;28;20431;-64
2022/03/28 04:14:40;;;;;;;19.27;11.43;;;10.50;99.90;;;;;;4147980;28;20034;-64
2022/03/28 04:16:40;;;;;;;21.63;12.32;;;10.50;99.90;;;;;;4152347;28;20037;-64
2022/03/28 04:18:41;;;;;;;22.95;12.48;;;10.50;99.90;;;;;;4150673;28;20053;-64
2022/03/28 04:20:42;;;;;;;19.85;11.05;;;10.50;99.90;;;;;;4149162;28;20046;-64
2022/03/28 04:22:43;;;;;;;20.13;12.15;;;10.50;99.90;;;;;;4153382;28;20038;-64
2022/03/28 04:24:43;;;;;;;20.90;12.35;;;10.40;99.90;;;;;;4137614;28;20042;-64
2022/03/28 04:26:44;;;;;;;21.55;12.60;;;10.40;99.90;;;;;;4151434;28;20057;-64
2022/03/28 04:28:44;;;;;;;21.55;12.15;;;10.40;99.90;;;;;;4152602;28;20069;-64
2022/03/28 04:30:45;;;;;;;23.10;12.43;;;10.40;99.90;;;;;;4149263;28;20119;-64
2022/03/28 04:32:46;;;;;;;23.23;13.43;;;10.30;99.90;;;;;;4153280;28;20033;-65
2022/03/28 04:34:47;;;;;;;21.88;13.23;;;10.30;99.90;;;;;;4152361;28;20034;-64
2022/03/28 04:36:48;;;;;;;21.33;12.15;;;10.30;99.90;;;;;;4150473;28;20432;-64
2022/03/28 04:38:48;;;;;;;20.35;12.07;;;10.30;99.90;;;;;;4145897;28;20038;-64
2022/03/28 04:40:49;;;;;;;21.80;12.13;;;10.30;99.90;;;;;;4144710;28;20417;-64
2022/03/28 04:42:50;;;;;;;21.63;12.23;;;10.30;99.90;;;;;;4147058;28;20437;-64
2022/03/28 04:44:50;;;;;;;22.52;13.23;;;10.30;99.90;;;;;;4144726;28;20398;-64
2022/03/28 04:46:51;;;;;;;20.63;12.68;;;10.20;99.90;;;;;;4143219;28;20045;-64
2022/03/28 04:48:51;;;;;;;24.17;12.77;;;10.20;99.90;;;;;;4145613;28;20487;-64
2022/03/28 04:50:52;;;;;;;21.00;12.48;;;10.20;99.90;;;;;;4146049;28;20471;-64
2022/03/28 04:52:53;;;;;;;22.25;12.52;;;10.20;99.90;;;;;;4149188;28;20137;-64
2022/03/28 04:54:53;;;;;;;23.67;13.13;;;10.10;99.90;;;;;;4147738;28;20033;-64
2022/03/28 04:56:54;;;;;;;25.48;13.20;;;10.10;99.90;;;;;;4144985;28;20038;-64
2022/03/28 04:58:54;;;;;;;24.08;13.57;;;10.10;99.90;;;;;;4146276;28;20034;-64
2022/03/28 05:00:55;;;;;;;21.58;13.27;;;10.10;99.90;;;;;;4143842;28;20038;-65
2022/03/28 05:02:57;;;;;;;25.13;13.65;;;10.10;99.90;;;;;;4146423;28;20033;-64
2022/03/28 05:04:57;;;;;;;22.88;13.52;;;10.10;99.90;;;;;;4144524;28;20478;-64
2022/03/28 05:06:58;;;;;;;23.65;11.95;;;10.00;99.90;;;;;;4145793;28;20033;-64
2022/03/28 05:08:59;;;;;;;25.23;14.35;;;10.00;99.90;;;;;;4143783;28;20057;-64
2022/03/28 05:11:00;;;;;;;23.10;13.38;;;10.00;99.90;;;;;;4145039;28;20041;-64
2022/03/28 05:13:00;;;;;;;23.70;13.80;;;10.00;99.90;;;;;;4146713;28;20045;-64
2022/03/28 05:15:02;;;;;;;24.08;13.40;;;10.00;99.90;;;;;;4145200;28;20358;-64
2022/03/28 05:17:03;;;;;;;22.25;13.15;;;10.00;99.90;;;;;;4143221;28;20040;-64
2022/03/28 05:19:04;;;;;;;23.00;13.55;;;10.00;99.90;;;;;;4144168;28;20038;-64
2022/03/28 05:21:05;;;;;;;23.67;13.38;;;9.90;99.90;;;;;;4129378;28;20474;-64
2022/03/28 05:23:05;;;;;;;23.48;12.98;;;10.00;99.90;;;;;;4142994;28;20155;-64
2022/03/28 05:25:07;;;;;;;23.23;13.65;;;9.90;99.90;;;;;;4145559;28;20054;-65
2022/03/28 05:27:07;;;;;;;22.73;13.50;;;9.90;99.90;;;;;;4144281;28;20046;-64
2022/03/28 05:29:08;;;;;;;21.83;12.70;;;9.90;99.90;;;;;;4144366;28;20129;-64
2022/03/28 05:31:08;;;;;;;19.20;11.75;;;9.90;99.90;;;;;;4144415;28;20091;-65
2022/03/28 05:33:09;;;;;;;20.50;11.75;;;9.80;99.90;;;;;;4146050;28;20034;-64
2022/03/28 05:35:10;;;;;;;18.88;11.90;;;9.80;99.90;;;;;;4145146;28;20030;-65
2022/03/28 05:37:12;;;;;;;22.77;12.27;;;9.80;99.90;;;;;;4145537;28;20088;-64
2022/03/28 05:39:13;;;;;;;23.05;12.48;;;9.80;99.90;;;;;;4145183;28;20041;-64
2022/03/28 05:41:13;;;;;;;25.00;12.68;;;9.80;99.90;;;;;;4142853;28;20042;-64
2022/03/28 05:43:14;;;;;;;22.90;12.80;;;9.80;99.90;;;;;;4144744;28;20200;-64
2022/03/28 05:45:15;;;;;;;20.73;12.23;;;9.70;99.90;;;;;;4143294;28;20050;-65
2022/03/28 05:47:15;;;;;;;22.50;12.63;;;9.70;99.90;;;;;;4143969;28;20489;-64
2022/03/28 05:49:16;;;;;;;19.80;12.18;;;9.80;99.90;;;;;;4144287;28;20369;-64
2022/03/28 05:51:17;;;;;;;19.38;12.32;;;9.80;99.90;;;;;;4143246;28;20125;-64
2022/03/28 05:53:17;;;;;;;23.90;12.88;;;9.80;99.90;;;;;;4141991;28;20045;-65
2022/03/28 05:55:18;;;;;;;20.45;11.88;;;9.80;99.90;;;;;;4142011;28;20160;-64
2022/03/28 05:57:19;;;;;;;20.15;12.48;;;9.80;99.90;;;;;;4143834;28;20409;-65
2022/03/28 05:59:19;;;;;;;20.70;12.93;;;9.80;99.90;;;;;;4143341;28;20117;-65
2022/03/28 06:01:20;;;;;;;23.15;12.63;;;9.80;99.90;;;;;;4141269;28;20049;-64
2022/03/28 06:03:21;;;;;;;22.42;13.52;;;9.80;99.90;;;;;;4143179;28;20573;-64
2022/03/28 06:05:21;;;;;;;23.80;12.80;;;9.80;99.90;;;;;;4141462;28;20041;-65
2022/03/28 06:07:22;;;;;;;25.20;14.55;;;9.80;99.90;;;;;;4141528;28;20490;-65
2022/03/28 06:09:22;;;;;;;23.10;13.43;;;9.80;99.90;;;;;;4141945;28;20125;-64
2022/03/28 06:11:23;;;;;;;23.73;14.02;;;9.80;99.90;;;;;;4140124;28;20046;-64
2022/03/28 06:13:24;;;;;;;23.45;12.82;;;9.80;99.90;;;;;;4141002;28;20046;-65
2022/03/28 06:15:24;;;;;;;25.40;14.05;;;9.80;99.90;;;;;;4140510;28;21259;-64
2022/03/28 06:17:26;;;;;;;22.95;13.98;;;9.90;99.90;;;;;;4142317;28;20096;-64
2022/03/28 06:19:27;;;;;;;26.77;14.77;;;9.90;99.90;;;;;;4141656;28;20037;-64
2022/03/28 06:21:30;;;;;;;22.50;12.88;;;9.90;99.90;;;;;;4140545;28;20422;-64
2022/03/28 06:23:31;;;;;;;24.52;14.13;;;9.90;99.90;;;;;;4141391;28;20045;-64
2022/03/28 06:25:32;;;;;;;24.65;14.88;;;10.00;99.90;;;;;;4139333;28;20061;-64
2022/03/28 06:27:32;;;;;;;27.90;14.30;;;10.00;99.90;;;;;;4141373;28;20039;-64
2022/03/28 06:29:33;;;;;;;26.42;14.65;;;10.00;99.90;;;;;;4141718;28;20520;-64
2022/03/28 06:31:34;;;;;;;26.45;14.75;;;10.20;99.90;;;;;;4139976;28;20386;-65
2022/03/28 06:33:35;;;;;;;31.48;15.93;;;10.30;99.90;;;;;;4141846;28;20132;-65
2022/03/28 06:35:36;;;;;;;28.63;15.60;;;10.40;99.90;;;;;;4141339;28;20038;-65
2022/03/28 06:37:36;;;;;;;26.38;15.45;;;10.60;99.90;;;;;;4143464;28;20057;-65
2022/03/28 06:39:38;;;;;;;28.08;15.40;;;10.70;99.90;;;;;;4141496;28;20050;-65
2022/03/28 06:41:39;;;;;;;25.45;15.35;;;10.90;99.90;;;;;;4155509;28;20044;-65
2022/03/28 06:43:39;;;;;;;25.38;14.45;;;11.10;99.90;;;;;;4141414;28;20038;-65
2022/03/28 06:45:40;;;;;;;26.23;15.15;;;11.30;99.90;;;;;;4140897;28;20042;-65
2022/03/28 06:47:42;;;;;;;27.42;15.70;;;11.40;99.90;;;;;;4140342;28;20148;-65
2022/03/28 06:49:43;;;;;;;31.10;15.25;;;11.60;99.90;;;;;;4141288;28;20096;-64
2022/03/28 06:51:43;;;;;;;24.88;15.15;;;11.80;99.90;;;;;;4141086;28;20046;-65
2022/03/28 06:53:48;;;;;;;24.95;15.13;;;12.00;99.90;;;;;;4142015;28;20125;-65
2022/03/28 06:55:48;;;;;;;29.13;16.45;;;12.20;99.90;;;;;;4140383;28;20057;-65
2022/03/28 06:57:50;;;;;;;29.00;15.45;;;12.40;99.90;;;;;;4141468;28;20073;-65
2022/03/28 06:59:50;;;;;;;26.67;15.63;;;12.60;99.90;;;;;;4135351;28;20053;-65
2022/03/28 07:01:51;;;;;;;28.50;16.83;;;12.80;99.90;;;;;;4140448;28;20050;-65
2022/03/28 07:03:52;;;;;;;30.27;17.38;;;13.00;99.90;;;;;;4140041;28;20124;-65
2022/03/28 07:05:52;;;;;;;26.98;16.73;;;13.20;99.90;;;;;;4137350;28;20041;-65
2022/03/28 07:07:53;;;;;;;27.90;16.73;;;13.40;99.90;;;;;;4136142;28;20045;-65
2022/03/28 07:09:54;;;;;;;27.30;16.17;;;13.60;99.90;;;;;;4141552;28;20726;-65
2022/03/28 07:11:55;;;;;;;29.67;16.80;;;13.70;99.90;;;;;;4139301;28;20073;-65
2022/03/28 07:13:55;;;;;;;26.95;16.40;;;13.90;99.90;;;;;;4141212;28;20041;-65
2022/03/28 07:15:56;;;;;;;30.67;17.17;;;14.10;99.90;;;;;;4135890;28;20037;-65
2022/03/28 07:18:02;;;;;;;27.13;16.83;;;14.30;99.90;;;;;;4139204;28;20029;-66
2022/03/28 07:20:03;;;;;;;28.23;17.55;;;14.50;99.90;;;;;;4123259;28;20027;-65
2022/03/28 07:22:05;;;;;;;27.70;17.27;;;14.60;99.90;;;;;;4139511;28;20072;-65
2022/03/28 07:24:06;;;;;;;29.42;17.15;;;14.80;99.90;;;;;;4140188;28;20076;-65
2022/03/28 07:26:07;;;;;;;30.50;18.55;;;14.90;99.90;;;;;;4139376;28;20070;-65
2022/03/28 07:28:12;;;;;;;30.88;17.85;;;15.10;99.90;;;;;;4145679;28;20044;-66
2022/03/28 07:30:14;;;;;;;32.25;17.65;;;15.30;99.90;;;;;;4140697;28;20038;-66
2022/03/28 07:32:15;;;;;;;30.83;17.08;;;15.40;99.90;;;;;;4139744;28;20046;-66
2022/03/28 07:34:32;;;;;;;29.55;16.83;;;15.60;99.90;;;;;;4140999;28;20046;-65
2022/03/28 07:36:32;;;;;;;28.33;16.45;;;15.70;99.90;;;;;;4139196;28;20045;-65
2022/03/28 07:38:33;;;;;;;29.63;17.00;;;15.90;99.90;;;;;;4140216;28;20045;-65
2022/03/28 07:40:36;;;;;;;26.52;16.88;;;16.00;99.90;;;;;;4142093;28;20061;-65
2022/03/28 07:42:37;;;;;;;;;;;16.20;99.90;;;;;;4141468;28;20620;-65
2022/03/28 07:44:37;;;;;;;29.13;16.63;;;16.30;99.90;;;;;;4140072;28;19968;-65
2022/03/28 07:46:38;;;;;;;28.95;17.50;;;16.50;99.40;;;;;;4139521;28;20162;-65
2022/03/28 07:48:39;;;;;;;29.85;16.60;;;16.70;99.60;;;;;;4140668;28;20038;-65
2022/03/28 07:50:39;;;;;;;28.83;17.75;;;16.80;97.90;;;;;;4144649;28;20080;-65
2022/03/28 07:52:41;;;;;;;27.58;17.13;;;16.50;97.50;;;;;;4142046;28;20038;-65
2022/03/28 07:54:41;;;;;;;27.60;16.52;;;16.60;97.20;;;;;;4141245;28;20180;-65
2022/03/28 07:56:42;;;;;;;29.67;17.25;;;16.80;98.30;;;;;;4141815;28;20080;-65
2022/03/28 07:58:42;;;;;;;29.23;16.60;;;17.00;98.70;;;;;;4140799;28;20782;-65
2022/03/28 08:00:43;;;;;;;27.63;16.20;;;17.10;98.00;;;;;;4139012;28;20057;-65
2022/03/28 08:02:44;;;;;;;24.70;16.20;;;17.20;97.60;;;;;;4140698;28;20038;-65
2022/03/28 08:04:45;;;;;;;33.70;17.80;;;17.40;97.90;;;;;;4140400;28;20057;-65
2022/03/28 08:06:45;;;;;;;26.50;17.23;;;17.50;98.10;;;;;;4140602;28;20038;-65
2022/03/28 08:08:46;;;;;;;30.58;16.33;;;17.60;97.70;;;;;;4149949;28;20041;-65
2022/03/28 08:10:47;;;;;;;28.00;16.27;;;17.80;97.40;;;;;;4143082;28;20498;-65
2022/03/28 08:12:49;;;;;;;26.17;16.20;;;17.80;96.60;;;;;;4142318;28;20041;-65
2022/03/28 08:14:51;;;;;;;27.17;16.65;;;17.90;96.40;;;;;;4141462;28;20146;-66
2022/03/28 08:16:52;;;;;;;24.20;15.32;;;17.90;96.10;;;;;;4138922;28;20130;-65
2022/03/28 08:18:52;;;;;;;26.23;15.98;;;18.00;96.10;;;;;;4139755;28;20037;-65
2022/03/28 08:20:53;;;;;;;25.80;15.82;;;17.90;96.00;;;;;;4139957;28;20091;-65
2022/03/28 08:22:54;;;;;;;24.52;15.65;;;18.00;96.80;;;;;;4140025;28;20058;-65
2022/03/28 08:24:54;;;;;;;24.20;15.85;;;18.00;95.70;;;;;;4140862;28;20486;-65
2022/03/28 08:26:55;;;;;;;25.67;16.55;;;18.10;96.20;;;;;;4138799;28;20054;-65
2022/03/28 08:28:57;;;;;;;22.52;15.35;;;18.10;96.10;;;;;;4144401;28;20077;-65
2022/03/28 08:30:57;;;;;;;26.23;15.77;;;18.20;96.40;;;;;;4138554;28;20405;-65
2022/03/28 08:32:58;;;;;;;26.02;15.27;;;18.30;96.70;;;;;;4139694;28;20386;-65
2022/03/28 08:34:59;;;;;;;24.58;15.60;;;18.40;96.00;;;;;;4139671;28;20046;-65
2022/03/28 08:36:59;;;;;;;27.25;16.33;;;18.40;96.20;;;;;;4141077;28;20037;-65
2022/03/28 08:39:00;;;;;;;25.42;15.80;;;18.50;96.10;;;;;;4142745;28;20049;-65
2022/03/28 08:41:02;;;;;;;23.88;15.23;;;18.60;95.40;;;;;;4142943;28;20042;-65
2022/03/28 08:43:04;;;;;;;25.75;14.73;;;18.60;95.10;;;;;;4143315;28;20489;-65
2022/03/28 08:45:07;;;;;;;29.50;15.93;;;18.70;95.00;;;;;;4142726;28;20041;-66
2022/03/28 08:47:12;;;;;;;;;;;18.70;95.00;;;;;;4143842;28;20038;-65
2022/03/28 08:49:12;;;;;;;21.65;13.85;;;18.70;95.00;;;;;;4141488;28;20391;-65
2022/03/28 08:51:16;;;;;;;24.80;15.60;;;18.80;94.60;;;;;;4142803;28;20874;-65
2022/03/28 08:53:17;;;;;;;26.75;16.85;;;18.80;95.10;;;;;;4144245;28;20042;-65
2022/03/28 08:55:19;;;;;;;28.52;15.85;;;18.80;94.40;;;;;;4142673;28;20045;-65
2022/03/28 08:57:20;;;;;;;24.58;15.85;;;18.90;94.80;;;;;;4146208;28;20046;-65
2022/03/28 08:59:20;;;;;;;27.60;15.57;;;18.90;94.60;;;;;;4140981;28;20055;-66
2022/03/28 09:01:22;;;;;;;27.52;16.23;;;18.90;94.40;;;;;;4142016;28;20502;-66
2022/03/28 09:03:40;;;;;;;24.63;14.98;;;19.00;94.50;;;;;;4142380;28;20041;-66
2022/03/28 09:05:43;;;;;;;23.08;14.23;;;19.00;95.10;;;;;;4145570;28;20042;-65
2022/03/28 09:07:46;;;;;;;25.73;15.43;;;19.10;94.50;;;;;;4142807;28;20393;-65
2022/03/28 09:09:46;;;;;;;22.67;15.23;;;19.00;93.70;;;;;;4143152;28;20042;-65
2022/03/28 09:12:08;;;;;;;21.75;13.85;;;19.00;93.60;;;;;;4141555;28;20113;-64
2022/03/28 09:14:13;;;;;;;23.10;14.73;;;19.00;94.10;;;;;;4140722;28;20498;-64
2022/03/28 09:16:20;;;;;;;22.75;14.90;;;19.10;94.10;;;;;;4139686;28;20100;-64
2022/03/28 09:18:24;;;;;;;22.48;14.43;;;19.10;95.10;;;;;;4140416;28;20039;-65
2022/03/28 09:20:25;;;;;;;25.20;16.13;;;19.10;95.20;;;;;;4141406;28;20041;-64
2022/03/28 09:22:27;;;;;;;25.30;15.85;;;19.10;95.10;;;;;;4142409;28;20037;-64
2022/03/28 09:24:31;;;;;;;25.48;16.02;;;19.20;95.20;;;;;;4139967;28;20073;-64
2022/03/28 09:26:32;;;;;;;21.10;14.55;;;19.30;95.00;;;;;;4143091;28;20452;-65
2022/03/28 09:28:46;;;;;;;25.77;15.85;;;19.30;95.20;;;;;;4141014;28;20074;-64
2022/03/28 09:30:47;;;;;;;22.90;14.52;;;19.40;94.30;;;;;;4140184;28;20065;-64
2022/03/28 09:32:49;;;;;;;22.88;13.68;;;19.40;94.10;;;;;;4141518;28;20042;-64
2022/03/28 09:35:07;;;;;;;25.17;15.70;;;19.40;94.30;;;;;;4141191;28;20046;-64
2022/03/28 09:37:11;;;;;;;24.17;14.48;;;19.40;94.30;;;;;;4140627;28;20449;-64
2022/03/28 09:39:30;;;;;;;24.00;15.07;;;19.40;94.10;;;;;;4140923;28;20086;-64
2022/03/28 09:41:31;;;;;;;22.38;14.75;;;19.50;94.50;;;;;;4141111;28;20417;-64
2022/03/28 09:43:32;;;;;;;23.27;14.88;;;19.50;94.10;;;;;;4143582;28;20058;-64
2022/03/28 09:45:39;;;;;;;23.50;14.15;;;19.60;94.40;;;;;;4142338;28;20121;-64
2022/03/28 09:47:59;;;;;;;24.75;14.43;;;19.60;94.70;;;;;;4141525;28;20065;-64
2022/03/28 09:50:00;;;;;;;24.58;14.43;;;19.70;94.40;;;;;;4141867;28;20045;-65
2022/03/28 09:52:11;;;;;;;21.63;13.82;;;19.70;94.40;;;;;;4140900;28;20042;-65
2022/03/28 09:54:20;;;;;;;21.83;14.48;;;19.70;94.30;;;;;;4141608;28;20061;-64
2022/03/28 09:56:21;;;;;;;25.70;16.50;;;19.80;93.70;;;;;;4140738;28;20176;-64
2022/03/28 09:58:46;;;;;;;26.50;16.15;;;19.80;94.00;;;;;;4140913;28;20073;-65
2022/03/28 10:00:49;;;;;;;23.98;15.63;;;19.80;93.70;;;;;;4140449;28;20046;-65
2022/03/28 10:02:50;;;;;;;25.40;15.10;;;19.80;94.00;;;;;;4142110;28;20481;-64
2022/03/28 10:04:54;;;;;;;26.02;15.27;;;19.90;93.60;;;;;;4141642;28;20130;-64
2022/03/28 10:06:56;;;;;;;24.65;14.13;;;19.90;93.50;;;;;;4139518;28;20036;-64
2022/03/28 10:08:57;;;;;;;22.80;13.63;;;19.90;94.00;;;;;;4140074;28;20069;-64
2022/03/28 10:10:59;;;;;;;25.15;15.18;;;20.00;92.80;;;;;;4140304;28;20047;-64
2022/03/28 10:13:01;;;;;;;23.55;14.45;;;19.90;93.10;;;;;;4143486;28;20188;-65
2022/03/28 10:15:01;;;;;;;24.60;15.27;;;19.90;93.00;;;;;;4146347;28;20530;-65
2022/03/28 10:17:05;;;;;;;21.95;14.23;;;20.00;93.10;;;;;;4143776;28;20115;-64
2022/03/28 10:19:05;;;;;;;27.83;15.18;;;20.00;93.40;;;;;;4147406;28;20034;-65